createdAt,value
2019-06-20T00:01:48.471Z,99.90
2019-06-20T00:04:19.291Z,99.90
2019-06-20T00:06:50.981Z,99.90
2019-06-20T00:09:46.474Z,99.90
2019-06-20T00:12:15.202Z,99.90
2019-06-20T00:18:39.936Z,99.90
2019-06-20T00:24:13.471Z,99.90
2019-06-20T00:26:44.788Z,99.90
2019-06-20T00:29:15.631Z,99.90
2019-06-20T00:32:00.575Z,99.90
2019-06-20T00:34:42.626Z,99.90
2019-06-20T00:37:17.404Z,99.90
2019-06-20T00:39:48.752Z,99.90
2019-06-20T00:42:20.483Z,99.90
2019-06-20T00:44:58.269Z,99.90
2019-06-20T00:47:29.518Z,99.90
2019-06-20T00:50:05.874Z,99.90
2019-06-20T00:52:42.438Z,99.90
2019-06-20T00:55:17.423Z,99.90
2019-06-20T00:58:07.257Z,99.90
2019-06-20T01:00:38.680Z,99.90
2019-06-20T01:03:10.038Z,99.90
2019-06-20T01:05:58.253Z,99.90
2019-06-20T01:08:34.542Z,99.90
2019-06-20T01:11:05.969Z,99.90
2019-06-20T01:13:46.666Z,99.90
2019-06-20T01:16:36.870Z,99.90
2019-06-20T01:19:17.513Z,99.90
2019-06-20T01:21:51.996Z,99.90
2019-06-20T01:24:39.441Z,99.90
2019-06-20T01:27:11.137Z,99.90
2019-06-20T01:29:57.046Z,99.90
2019-06-20T01:32:42.780Z,99.90
2019-06-20T01:35:17.241Z,99.90
2019-06-20T01:38:36.997Z,99.90
2019-06-20T01:41:11.422Z,99.90
2019-06-20T01:44:22.770Z,99.90
2019-06-20T01:46:57.499Z,99.90
2019-06-20T01:56:57.772Z,99.90
2019-06-20T01:59:47.377Z,99.90
2019-06-20T02:09:03.594Z,99.90
2019-06-20T02:11:45.519Z,99.90
2019-06-20T02:14:21.752Z,99.90
2019-06-20T02:16:50.405Z,99.90
2019-06-20T02:37:08.754Z,99.90
2019-06-20T02:39:43.332Z,99.90
2019-06-20T02:42:22.600Z,99.90
2019-06-20T02:44:54.339Z,99.90
2019-06-20T02:47:33.050Z,99.90
2019-06-20T02:50:05.872Z,99.90
2019-06-20T02:52:41.957Z,99.90
2019-06-20T02:55:13.926Z,99.90
2019-06-20T02:57:44.737Z,99.90
2019-06-20T03:00:33.920Z,99.90
2019-06-20T03:03:02.561Z,99.90
2019-06-20T03:05:31.257Z,99.90
2019-06-20T03:08:08.691Z,99.90
2019-06-20T03:10:40.523Z,99.90
2019-06-20T03:13:21.092Z,99.90
2019-06-20T03:15:54.021Z,99.90
2019-06-20T03:18:28.745Z,99.90
2019-06-20T03:21:08.396Z,99.90
2019-06-20T03:23:39.099Z,99.90
2019-06-20T03:26:21.815Z,99.90
2019-06-20T03:28:50.403Z,99.90
2019-06-20T03:31:49.178Z,99.90
2019-06-20T03:34:23.699Z,99.90
2019-06-20T03:37:05.126Z,99.90
2019-06-20T03:39:35.988Z,99.90
2019-06-20T03:42:06.688Z,99.90
2019-06-20T03:44:41.215Z,99.90
2019-06-20T03:47:11.881Z,99.90
2019-06-20T03:49:40.569Z,99.90
2019-06-20T03:52:54.270Z,99.90
2019-06-20T03:55:24.872Z,99.90
2019-06-20T03:58:20.448Z,99.90
2019-06-20T04:01:24.276Z,99.90
2019-06-20T04:07:29.819Z,99.90
2019-06-20T04:10:05.321Z,99.90
2019-06-20T04:12:35.885Z,99.90
2019-06-20T04:15:19.033Z,99.90
2019-06-20T04:17:52.989Z,99.90
2019-06-20T04:20:30.581Z,99.90
2019-06-20T04:23:05.239Z,99.90
2019-06-20T04:25:36.849Z,99.90
2019-06-20T04:28:16.532Z,99.90
2019-06-20T04:30:45.185Z,99.90
2019-06-20T04:33:19.537Z,99.90
2019-06-20T04:36:06.197Z,99.90
2019-06-20T04:38:40.985Z,99.90
2019-06-20T04:41:49.264Z,99.90
2019-06-20T04:44:20.552Z,99.90
2019-06-20T04:47:03.643Z,99.90
2019-06-20T04:49:38.166Z,99.90
2019-06-20T04:52:15.802Z,99.90
2019-06-20T04:54:44.456Z,99.90
2019-06-20T04:57:16.057Z,99.90
2019-06-20T05:00:02.117Z,99.90
2019-06-20T05:02:36.521Z,99.90
2019-06-20T05:05:06.790Z,99.90
2019-06-20T05:07:38.044Z,99.90
2019-06-20T05:13:20.821Z,99.90
2019-06-20T05:16:05.040Z,99.90
2019-06-20T05:19:06.605Z,99.90
2019-06-20T05:21:57.902Z,99.90
2019-06-20T05:24:32.767Z,99.90
2019-06-20T05:27:04.046Z,99.90
2019-06-20T05:29:40.863Z,99.90
2019-06-20T05:32:12.519Z,99.90
2019-06-20T05:34:48.928Z,99.90
2019-06-20T05:37:20.540Z,99.90
2019-06-20T05:39:49.157Z,99.90
2019-06-20T05:42:29.974Z,99.90
2019-06-20T05:45:01.568Z,99.90
2019-06-20T05:47:39.118Z,99.90
2019-06-20T05:50:10.352Z,99.90
2019-06-20T05:52:41.212Z,99.90
2019-06-20T05:55:19.366Z,99.90
2019-06-20T05:57:53.843Z,99.90
2019-06-20T06:00:23.821Z,99.90
2019-06-20T06:02:55.544Z,99.90
2019-06-20T06:05:34.616Z,99.90
2019-06-20T06:08:05.888Z,99.90
2019-06-20T06:10:35.657Z,99.90
2019-06-20T06:13:07.369Z,99.90
2019-06-20T06:15:38.979Z,99.90
2019-06-20T06:18:10.694Z,99.90
2019-06-20T06:20:44.805Z,99.90
2019-06-20T06:23:28.010Z,99.90
2019-06-20T06:26:05.230Z,99.90
2019-06-20T06:29:08.436Z,99.90
2019-06-20T06:32:04.450Z,99.90
2019-06-20T06:34:36.092Z,99.90
2019-06-20T06:37:17.450Z,99.90
2019-06-20T06:39:45.336Z,99.90
2019-06-20T06:42:21.215Z,99.90
2019-06-20T06:45:02.100Z,99.90
2019-06-20T06:47:36.644Z,99.90
2019-06-20T06:50:13.168Z,99.90
2019-06-20T06:52:48.136Z,99.90
2019-06-20T06:55:19.488Z,99.90
2019-06-20T06:57:50.320Z,99.90
2019-06-20T07:00:58.242Z,99.90
2019-06-20T07:04:18.156Z,99.90
2019-06-20T07:06:52.838Z,99.90
2019-06-20T07:09:35.336Z,99.90
2019-06-20T07:12:59.999Z,99.90
2019-06-20T07:15:34.385Z,99.90
2019-06-20T07:18:06.036Z,99.90
2019-06-20T07:20:39.843Z,99.90
2019-06-20T07:23:11.124Z,99.90
2019-06-20T07:26:19.175Z,99.90
2019-06-20T07:28:56.708Z,99.90
2019-06-20T07:31:31.108Z,99.90
2019-06-20T07:34:02.450Z,99.90
2019-06-20T07:36:39.819Z,99.90
2019-06-20T07:39:21.256Z,99.90
2019-06-20T07:41:49.898Z,99.90
2019-06-20T07:44:24.361Z,99.90
2019-06-20T07:46:53.023Z,99.90
2019-06-20T07:49:34.697Z,99.90
2019-06-20T07:52:06.304Z,99.90
2019-06-20T07:54:37.520Z,99.90
2019-06-20T07:57:08.404Z,99.90
2019-06-20T07:59:51.878Z,99.90
2019-06-20T08:02:23.610Z,99.90
2019-06-20T08:05:02.179Z,99.90
2019-06-20T08:08:22.379Z,99.90
2019-06-20T08:10:54.126Z,99.90
2019-06-20T08:13:41.156Z,98.10
2019-06-20T08:16:09.912Z,97.50
2019-06-20T08:18:41.528Z,96.70
2019-06-20T08:21:12.912Z,96.70
2019-06-20T08:23:47.197Z,97.30
2019-06-20T08:26:31.971Z,98.00
2019-06-20T08:33:26.879Z,99.20
2019-06-20T08:36:04.509Z,99.90
2019-06-20T08:38:39.160Z,99.90
2019-06-20T08:41:10.745Z,98.10
2019-06-20T08:43:45.803Z,97.20
2019-06-20T08:46:14.457Z,97.20
2019-06-20T08:48:44.156Z,97.00
2019-06-20T08:51:14.680Z,96.30
2019-06-20T08:53:45.638Z,95.90
2019-06-20T08:56:40.356Z,95.40
2019-06-20T08:59:36.194Z,96.00
2019-06-20T09:02:22.938Z,95.40
2019-06-20T09:09:26.397Z,95.20
2019-06-20T09:12:16.096Z,95.00
2019-06-20T09:14:50.400Z,94.50
2019-06-20T09:17:20.906Z,94.30
2019-06-20T09:19:52.911Z,93.90
2019-06-20T09:22:30.991Z,94.20
2019-06-20T09:25:07.023Z,94.70
2019-06-20T09:28:31.604Z,96.00
2019-06-20T09:31:07.256Z,95.10
2019-06-20T09:33:42.036Z,95.00
2019-06-20T09:36:57.526Z,94.50
2019-06-20T09:39:38.180Z,93.90
2019-06-20T09:42:09.435Z,92.90
2019-06-20T09:44:54.106Z,92.30
2019-06-20T09:47:28.561Z,92.50
2019-06-20T09:50:01.185Z,93.30
2019-06-20T09:53:19.269Z,92.80
2019-06-20T09:55:55.876Z,93.00
2019-06-20T09:58:27.229Z,93.60
2019-06-20T10:00:58.484Z,93.00
2019-06-20T10:03:33.027Z,93.20
2019-06-20T10:06:19.472Z,92.20
2019-06-20T10:08:57.209Z,91.60
2019-06-20T10:11:33.929Z,90.70
2019-06-20T10:14:08.531Z,89.50
2019-06-20T10:16:47.482Z,81.50
2019-06-20T10:19:59.660Z,78.70
2019-06-20T10:22:34.542Z,78.10
2019-06-20T10:25:06.438Z,77.50
2019-06-20T10:27:40.942Z,77.90
2019-06-20T10:30:16.392Z,77.80
2019-06-20T10:32:51.148Z,81.00
2019-06-20T10:35:26.093Z,78.80
2019-06-20T10:37:57.714Z,81.30
2019-06-20T10:40:29.049Z,82.00
2019-06-20T10:43:23.377Z,82.20
2019-06-20T10:45:55.039Z,81.90
2019-06-20T10:48:36.252Z,81.40
2019-06-20T10:51:25.696Z,80.70
2019-06-20T10:53:56.579Z,81.30
2019-06-20T10:59:58.865Z,81.80
2019-06-20T11:02:30.123Z,85.90
2019-06-20T11:05:07.161Z,86.40
2019-06-20T11:07:42.460Z,86.80
2019-06-20T11:10:16.031Z,86.90
2019-06-20T11:12:53.837Z,87.20
2019-06-20T11:15:19.075Z,87.90
2019-06-20T11:17:48.644Z,84.00
2019-06-20T11:20:56.687Z,82.80
2019-06-20T11:23:28.295Z,83.60
2019-06-20T11:25:59.906Z,83.60
2019-06-20T11:28:28.684Z,84.30
2019-06-20T11:31:00.472Z,82.60
2019-06-20T11:33:31.977Z,84.70
2019-06-20T11:36:07.589Z,87.70
2019-06-20T11:38:40.696Z,86.60
2019-06-20T11:41:11.968Z,86.00
2019-06-20T11:43:42.577Z,81.00
2019-06-20T11:46:17.244Z,82.80
2019-06-20T11:48:49.103Z,82.40
2019-06-20T11:51:23.409Z,78.30
2019-06-20T11:53:55.014Z,79.60
2019-06-20T11:56:29.393Z,81.90
2019-06-20T11:59:34.728Z,83.30
2019-06-20T12:02:30.909Z,85.10
2019-06-20T12:05:02.572Z,90.00
2019-06-20T12:07:39.548Z,84.20
2019-06-20T12:10:14.593Z,85.10
2019-06-20T12:12:50.284Z,83.20
2019-06-20T12:15:46.632Z,83.50
2019-06-20T12:21:45.113Z,85.30
2019-06-20T12:24:22.783Z,82.40
2019-06-20T12:26:51.859Z,79.80
2019-06-20T12:29:29.808Z,78.40
2019-06-20T12:32:10.306Z,77.90
2019-06-20T12:34:42.222Z,78.40
2019-06-20T12:37:16.728Z,79.30
2019-06-20T12:39:48.663Z,79.70
2019-06-20T12:42:41.814Z,78.60
2019-06-20T12:45:15.881Z,81.40
2019-06-20T12:48:41.258Z,81.20
2019-06-20T12:51:19.566Z,82.00
2019-06-20T12:54:15.455Z,80.90
2019-06-20T12:57:03.603Z,81.70
2019-06-20T12:59:35.416Z,82.90
2019-06-20T13:02:23.429Z,83.10
2019-06-20T13:04:57.926Z,81.50
2019-06-20T13:07:32.551Z,82.20
2019-06-20T13:10:16.392Z,81.80
2019-06-20T13:12:51.616Z,81.30
2019-06-20T13:15:26.038Z,82.60
2019-06-20T13:17:57.536Z,82.10
2019-06-20T13:20:29.160Z,82.20
2019-06-20T13:23:18.944Z,85.40
2019-06-20T13:26:26.802Z,83.70
2019-06-20T13:29:03.977Z,80.60
2019-06-20T13:31:29.631Z,80.90
2019-06-20T13:34:30.447Z,81.90
2019-06-20T13:37:01.809Z,80.10
2019-06-20T13:40:07.628Z,79.60
2019-06-20T13:42:39.011Z,80.30
2019-06-20T13:45:40.543Z,75.30
2019-06-20T13:48:50.680Z,74.90
2019-06-20T13:51:22.103Z,72.60
2019-06-20T13:57:22.473Z,78.30
2019-06-20T14:00:07.125Z,73.70
2019-06-20T14:02:36.766Z,75.90
2019-06-20T14:05:10.917Z,77.20
2019-06-20T14:07:46.718Z,77.80
2019-06-20T14:13:38.371Z,86.00
2019-06-20T14:16:19.217Z,87.60
2019-06-20T14:19:10.440Z,88.40
2019-06-20T14:21:38.272Z,90.50
2019-06-20T14:24:09.908Z,90.90
2019-06-20T14:26:59.514Z,90.70
2019-06-20T14:29:34.015Z,89.70
2019-06-20T14:32:05.328Z,90.70
2019-06-20T14:34:36.630Z,91.10
2019-06-20T14:37:07.920Z,90.40
2019-06-20T14:39:52.847Z,90.70
2019-06-20T14:42:29.166Z,85.60
2019-06-20T14:44:57.846Z,87.10
2019-06-20T14:47:29.619Z,90.00
2019-06-20T14:50:11.217Z,86.70
2019-06-20T14:52:44.184Z,85.50
2019-06-20T14:55:13.558Z,90.10
2019-06-20T14:57:56.306Z,89.10
2019-06-20T15:00:26.880Z,90.20
2019-06-20T15:02:58.893Z,90.30
2019-06-20T15:05:30.350Z,90.50
2019-06-20T15:08:29.595Z,90.20
2019-06-20T15:11:06.031Z,88.60
2019-06-20T15:13:37.801Z,90.30
2019-06-20T15:16:15.531Z,88.80
2019-06-20T15:18:46.490Z,90.30
2019-06-20T15:21:41.714Z,89.50
2019-06-20T15:27:55.758Z,90.90
2019-06-20T15:30:33.338Z,89.80
2019-06-20T15:33:32.808Z,89.20
2019-06-20T15:36:08.441Z,90.00
2019-06-20T15:38:38.076Z,89.70
2019-06-20T15:41:15.624Z,90.40
2019-06-20T15:43:51.763Z,88.70
2019-06-20T15:46:23.777Z,88.90
2019-06-20T15:49:15.393Z,88.60
2019-06-20T15:51:37.495Z,88.60
2019-06-20T15:54:09.221Z,88.80
2019-06-20T15:56:54.822Z,86.70
2019-06-20T15:59:51.652Z,88.90
2019-06-20T16:02:27.085Z,90.60
2019-06-20T16:04:58.489Z,89.20
2019-06-20T16:07:45.369Z,90.00
2019-06-20T16:10:15.030Z,89.10
2019-06-20T16:12:44.600Z,90.30
2019-06-20T16:15:16.409Z,88.10
2019-06-20T16:17:47.644Z,85.90
2019-06-20T16:20:17.236Z,84.30
2019-06-20T16:23:05.024Z,84.10
2019-06-20T16:25:33.657Z,84.80
2019-06-20T16:28:02.359Z,85.30
2019-06-20T16:30:50.790Z,83.30
2019-06-20T16:33:33.643Z,81.50
2019-06-20T16:36:05.961Z,84.30
2019-06-20T16:38:43.679Z,84.20
2019-06-20T16:41:49.143Z,83.50
2019-06-20T16:44:41.252Z,82.10
2019-06-20T16:47:12.020Z,81.30
2019-06-20T16:49:54.709Z,83.00
2019-06-20T16:52:26.423Z,82.80
2019-06-20T16:54:57.700Z,84.30
2019-06-20T16:57:42.379Z,82.60
2019-06-20T17:00:22.607Z,83.40
2019-06-20T17:03:06.059Z,85.50
2019-06-20T17:05:53.751Z,82.60
2019-06-20T17:08:33.198Z,83.00
2019-06-20T17:11:05.439Z,82.90
2019-06-20T17:13:34.423Z,83.80
2019-06-20T17:16:09.357Z,82.10
2019-06-20T17:18:39.344Z,85.10
2019-06-20T17:21:13.790Z,83.20
2019-06-20T17:23:45.455Z,83.60
2019-06-20T17:26:16.706Z,84.20
2019-06-20T17:28:48.092Z,85.00
2019-06-20T17:31:19.348Z,83.90
2019-06-20T17:33:57.491Z,82.60
2019-06-20T17:36:31.360Z,83.60
2019-06-20T17:39:08.418Z,84.30
2019-06-20T17:41:54.845Z,83.60
2019-06-20T17:44:19.251Z,81.00
2019-06-20T17:46:53.844Z,82.60
2019-06-20T17:49:22.492Z,82.40
2019-06-20T17:51:51.110Z,81.90
2019-06-20T17:54:19.920Z,82.10
2019-06-20T17:56:58.642Z,80.80
2019-06-20T17:59:27.220Z,81.40
2019-06-20T18:01:57.879Z,80.50
2019-06-20T18:04:45.843Z,78.60
2019-06-20T18:07:14.438Z,80.60
2019-06-20T18:09:44.964Z,78.60
2019-06-20T18:12:27.618Z,78.40
2019-06-20T18:14:56.569Z,77.30
2019-06-20T18:17:26.405Z,75.50
2019-06-20T18:19:55.069Z,76.40
2019-06-20T18:22:26.862Z,76.40
2019-06-20T18:24:58.432Z,75.10
2019-06-20T18:27:37.200Z,76.40
2019-06-20T18:30:14.698Z,76.20
2019-06-20T18:32:51.888Z,76.90
2019-06-20T18:35:27.366Z,76.20
2019-06-20T18:38:00.997Z,77.30
2019-06-20T18:40:35.925Z,75.80
2019-06-20T18:46:33.280Z,77.30
2019-06-20T18:49:10.099Z,78.70
2019-06-20T18:51:44.555Z,77.90
2019-06-20T18:54:13.150Z,78.90
2019-06-20T18:57:51.592Z,79.50
2019-06-20T19:00:34.095Z,79.80
2019-06-20T19:02:54.196Z,80.20
2019-06-20T19:05:40.267Z,81.20
2019-06-20T19:08:12.034Z,82.60
2019-06-20T19:10:48.892Z,81.80
2019-06-20T19:13:30.883Z,80.70
2019-06-20T19:15:59.468Z,81.50
2019-06-20T19:19:09.380Z,81.40
2019-06-20T19:21:40.763Z,81.40
2019-06-20T19:24:08.585Z,81.90
2019-06-20T19:26:37.214Z,83.50
2019-06-20T19:29:09.343Z,84.60
2019-06-20T19:31:43.109Z,85.20
2019-06-20T19:37:19.744Z,85.90
2019-06-20T19:39:51.108Z,86.70
2019-06-20T19:42:26.504Z,87.00
2019-06-20T19:44:55.084Z,87.40
2019-06-20T19:47:26.852Z,89.10
2019-06-20T19:49:55.561Z,90.10
2019-06-20T19:52:37.185Z,90.70
2019-06-20T19:55:36.059Z,91.10
2019-06-20T19:58:11.632Z,91.20
2019-06-20T20:00:44.551Z,92.30
2019-06-20T20:03:37.612Z,92.50
2019-06-20T20:06:24.595Z,92.70
2019-06-20T20:09:18.284Z,92.80
2019-06-20T20:12:44.747Z,93.60
2019-06-20T20:15:15.790Z,93.80
2019-06-20T20:17:59.243Z,94.40
2019-06-20T20:20:27.838Z,94.40
2019-06-20T20:22:56.673Z,94.60
2019-06-20T20:25:33.772Z,94.60
2019-06-20T20:28:03.578Z,95.10
2019-06-20T20:30:34.265Z,95.10
2019-06-20T20:33:08.758Z,94.90
2019-06-20T20:35:41.527Z,95.60
2019-06-20T20:38:14.366Z,95.50
2019-06-20T20:40:51.652Z,95.60
2019-06-20T20:43:22.265Z,95.60
2019-06-20T20:45:58.655Z,95.60
2019-06-20T20:48:30.271Z,95.90
2019-06-20T20:50:58.990Z,96.10
2019-06-20T20:53:27.586Z,96.20
2019-06-20T20:56:26.526Z,96.80
2019-06-20T20:59:24.651Z,97.70
2019-06-20T21:01:53.344Z,97.50
2019-06-20T21:04:24.616Z,97.80
2019-06-20T21:06:59.214Z,97.80
2019-06-20T21:09:34.853Z,97.50
2019-06-20T21:12:12.756Z,97.70
2019-06-20T21:14:43.360Z,97.90
2019-06-20T21:17:22.013Z,98.20
2019-06-20T21:19:50.651Z,98.30
2019-06-20T21:22:19.266Z,98.80
2019-06-20T21:25:07.014Z,99.30
2019-06-20T21:27:41.426Z,99.40
2019-06-20T21:30:13.635Z,99.90
2019-06-20T21:32:49.101Z,99.70
2019-06-20T21:35:18.172Z,99.90
2019-06-20T21:37:49.786Z,99.90
2019-06-20T21:40:30.592Z,99.80
2019-06-20T21:43:02.207Z,99.90
2019-06-20T21:45:30.808Z,99.90
2019-06-20T21:48:13.693Z,99.90
2019-06-20T21:50:48.191Z,99.90
2019-06-20T21:53:25.751Z,99.90
2019-06-20T21:56:00.335Z,99.90
2019-06-20T21:58:28.922Z,99.90
2019-06-20T22:01:01.672Z,99.90
2019-06-20T22:03:43.470Z,99.90
2019-06-20T22:06:23.789Z,99.90
2019-06-20T22:08:52.521Z,99.90
2019-06-20T22:11:29.101Z,99.90
2019-06-20T22:14:03.623Z,99.90
2019-06-20T22:16:32.313Z,99.90
2019-06-20T22:19:04.393Z,99.90
2019-06-20T22:21:40.352Z,99.90
2019-06-20T22:24:10.023Z,99.90
2019-06-20T22:26:56.899Z,99.90
2019-06-20T22:29:34.487Z,99.90
2019-06-20T22:32:06.298Z,99.90
2019-06-20T22:34:41.139Z,99.90
2019-06-20T22:37:18.848Z,99.90
2019-06-20T22:39:53.720Z,99.90
2019-06-20T22:42:28.194Z,99.90
2019-06-20T22:45:07.962Z,99.90
2019-06-20T22:47:39.846Z,99.90
2019-06-20T22:50:14.916Z,99.90
2019-06-20T22:52:43.657Z,99.90
2019-06-20T22:55:25.205Z,99.90
2019-06-20T22:57:56.720Z,99.90
2019-06-20T23:00:32.378Z,99.90
2019-06-20T23:03:05.448Z,99.90
2019-06-20T23:05:36.751Z,99.90
2019-06-20T23:08:16.407Z,99.90
2019-06-20T23:10:51.054Z,99.90
2019-06-20T23:13:23.365Z,99.90
2019-06-20T23:15:57.837Z,99.90
2019-06-20T23:21:31.106Z,99.90
2019-06-20T23:24:32.361Z,99.90
2019-06-20T23:27:03.784Z,99.90
2019-06-20T23:29:41.633Z,99.90
2019-06-20T23:32:11.249Z,99.90
2019-06-20T23:34:46.822Z,99.90
2019-06-20T23:37:25.878Z,99.90
2019-06-20T23:40:00.405Z,99.90
2019-06-20T23:42:30.046Z,99.90
2019-06-20T23:45:07.634Z,99.90
2019-06-20T23:47:38.547Z,99.90
2019-06-20T23:50:10.883Z,99.90
2019-06-20T23:52:53.489Z,99.90
2019-06-20T23:55:24.053Z,99.90
2019-06-20T23:57:52.813Z,99.90
